Madrid, Spain

1:56 AM CEST on October 25, 2014 (GMT +0200)
Madrid - Las Mercedes | Change Station
CLOSE
Current Station
Personal Weather Station
Location: Madrid, COMUNIDAD DE MADRID
Elevation: 2037 ft
Nearby Weather Stations

Elev 2037 ft 40.44 °N, 3.59 °W | Updated 11 minutes ago

Clear
Clear
65.1 °F
Feels Like 65.1 °F
N
6.0
Wind Variable Wind from East
Gusts 7.6 mph

Today
High -- | Low -- °F
--% Chance of Precip.
Yesterday
High -- | Low -- °F
Precip. -- in
8:35 AM 7:20 PM
New Moon, 1% visible
Pressure 30.15 in
Visibility -9999.0 miles
Clouds
Dew Point 48 °F
Humidity 54%
Rainfall 0.00 in
Snow Depth Not available.
UV Not available.
Pollen Not available.
Air Quality Not available.
Flu Activity Not available.
METAR LEMD 242330Z 00000KT CAVOK 19/09 Q1021 NOSIG

More Conditions Fewer Conditions

Pressure 30.15 in
Visibility -9999.0 miles
Clouds
Dew Point 48 °F
Humidity 54%
Rainfall 0.00 in
Snow Depth Not available.
UV Not available.
Pollen Not available.
Air Quality Not available.
Flu Activity Not available.
METAR LEMD 242330Z 00000KT CAVOK 19/09 Q1021 NOSIG

More Conditions Fewer Conditions

10-Day Weather Forecast

Almanac

Astronomy

Oct. 25, 2014 Rise Set
Actual Time 8:35 AM CEST 7:20 PM CEST
Civil Twilight 8:07 AM CEST 7:48 PM CEST
Nautical Twilight 7:36 AM CEST 8:19 PM CEST
Astronomical Twilight 7:04 AM CEST 8:51 PM CEST
Moon 10:00 AM CEST (10/25) 8:32 PM CEST (10/25)
Length of Visible Light 11h 40m
Length of Day
10h 44m
Tomorrow will be 2m 29s shorter.
New Moon, 1% of the Moon is Illuminated
Oct 24
New Moon
Oct 30
First Quarter
Nov 6
Full
Nov 14
Last Quarter
Nov 22
New

Yesterday's Extremes

Country Highs Country Lows

Community

WunderPhotos

Upload Photos

1,764,713 photos uploaded!

Nearby

Snow Depth

Not available.

Earthquake Activity

City Distance Mag. Time & Date
No recent earthquake activity has been reported nearby.
Minimum magnitude displayed is 2.5.

Coastal Water Temperatures

Place Temperature
No Stations Reporting

Nearby Weather Stations